sensor_id;sensor_type;location;lat;lon;timestamp;temperature;humidity
17348;DHT22;8791;50.876;4.342;2023-01-23T00:01:57;2.00;99.90
17348;DHT22;8791;50.876;4.342;2023-01-23T00:04:24;2.20;99.90
17348;DHT22;8791;50.876;4.342;2023-01-23T00:06:50;2.00;99.90
17348;DHT22;8791;50.876;4.342;2023-01-23T00:09:17;2.20;99.90
17348;DHT22;8791;50.876;4.342;2023-01-23T00:11:45;2.30;99.90
17348;DHT22;8791;50.876;4.342;2023-01-23T00:14:12;2.20;99.90
17348;DHT22;8791;50.876;4.342;2023-01-23T00:16:39;2.10;99.90
17348;DHT22;8791;50.876;4.342;2023-01-23T00:19:06;2.00;99.90
17348;DHT22;8791;50.876;4.342;2023-01-23T00:21:32;2.10;99.90
17348;DHT22;8791;50.876;4.342;2023-01-23T00:23:59;2.00;99.90
17348;DHT22;8791;50.876;4.342;2023-01-23T00:26:29;1.90;99.90
17348;DHT22;8791;50.876;4.342;2023-01-23T00:28:58;2.00;99.90
17348;DHT22;8791;50.876;4.342;2023-01-23T00:31:28;2.10;99.90
17348;DHT22;8791;50.876;4.342;2023-01-23T00:33:57;2.20;99.90
17348;DHT22;8791;50.876;4.342;2023-01-23T00:36:26;1.90;99.90
17348;DHT22;8791;50.876;4.342;2023-01-23T00:38:54;2.00;99.90
17348;DHT22;8791;50.876;4.342;2023-01-23T00:41:21;2.10;99.90
17348;DHT22;8791;50.876;4.342;2023-01-23T00:43:47;2.30;99.90
17348;DHT22;8791;50.876;4.342;2023-01-23T00:46:18;2.20;99.90
17348;DHT22;8791;50.876;4.342;2023-01-23T00:48:45;2.20;99.90
17348;DHT22;8791;50.876;4.342;2023-01-23T00:51:12;2.20;99.90
17348;DHT22;8791;50.876;4.342;2023-01-23T00:53:39;2.20;99.90
17348;DHT22;8791;50.876;4.342;2023-01-23T00:56:06;2.10;99.90
17348;DHT22;8791;50.876;4.342;2023-01-23T00:58:33;2.10;99.90
17348;DHT22;8791;50.876;4.342;2023-01-23T01:01:00;2.30;99.90
17348;DHT22;8791;50.876;4.342;2023-01-23T01:03:28;2.20;99.90
17348;DHT22;8791;50.876;4.342;2023-01-23T01:05:56;2.20;99.90
17348;DHT22;8791;50.876;4.342;2023-01-23T01:08:22;2.20;99.90
17348;DHT22;8791;50.876;4.342;2023-01-23T01:10:49;2.10;99.90
17348;DHT22;8791;50.876;4.342;2023-01-23T01:13:16;2.00;99.90
17348;DHT22;8791;50.876;4.342;2023-01-23T01:15:46;2.00;99.90
17348;DHT22;8791;50.876;4.342;2023-01-23T01:18:13;2.10;99.90
17348;DHT22;8791;50.876;4.342;2023-01-23T01:20:42;2.00;99.90
17348;DHT22;8791;50.876;4.342;2023-01-23T01:23:09;1.90;99.90
17348;DHT22;8791;50.876;4.342;2023-01-23T01:25:37;2.00;99.90
17348;DHT22;8791;50.876;4.342;2023-01-23T01:28:04;1.90;99.90
17348;DHT22;8791;50.876;4.342;2023-01-23T01:30:31;2.10;99.90
17348;DHT22;8791;50.876;4.342;2023-01-23T01:32:58;2.20;99.90
17348;DHT22;8791;50.876;4.342;2023-01-23T01:35:25;2.20;99.90
17348;DHT22;8791;50.876;4.342;2023-01-23T01:37:53;2.20;99.90
17348;DHT22;8791;50.876;4.342;2023-01-23T01:40:21;2.30;99.90
17348;DHT22;8791;50.876;4.342;2023-01-23T01:42:52;2.30;99.90
17348;DHT22;8791;50.876;4.342;2023-01-23T01:48:27;2.40;99.90
17348;DHT22;8791;50.876;4.342;2023-01-23T01:50:55;2.40;99.90
17348;DHT22;8791;50.876;4.342;2023-01-23T01:53:26;2.50;99.90
17348;DHT22;8791;50.876;4.342;2023-01-23T01:55:55;2.50;99.90
17348;DHT22;8791;50.876;4.342;2023-01-23T01:58:23;2.50;99.90
17348;DHT22;8791;50.876;4.342;2023-01-23T02:00:50;2.50;99.90
17348;DHT22;8791;50.876;4.342;2023-01-23T02:03:17;2.50;99.90
17348;DHT22;8791;50.876;4.342;2023-01-23T02:05:46;2.50;99.90
17348;DHT22;8791;50.876;4.342;2023-01-23T02:08:19;2.60;99.90
17348;DHT22;8791;50.876;4.342;2023-01-23T02:10:48;2.60;99.90
17348;DHT22;8791;50.876;4.342;2023-01-23T02:13:22;2.70;99.90
17348;DHT22;8791;50.876;4.342;2023-01-23T02:15:51;2.40;99.90
17348;DHT22;8791;50.876;4.342;2023-01-23T02:18:19;2.50;99.90
17348;DHT22;8791;50.876;4.342;2023-01-23T02:20:47;2.60;99.90
17348;DHT22;8791;50.876;4.342;2023-01-23T02:23:23;2.50;99.90
17348;DHT22;8791;50.876;4.342;2023-01-23T02:25:57;2.40;99.90
17348;DHT22;8791;50.876;4.342;2023-01-23T02:28:36;2.50;99.90
17348;DHT22;8791;50.876;4.342;2023-01-23T02:31:03;2.60;99.90
17348;DHT22;8791;50.876;4.342;2023-01-23T02:33:48;2.50;99.90
17348;DHT22;8791;50.876;4.342;2023-01-23T02:36:17;2.50;99.90
17348;DHT22;8791;50.876;4.342;2023-01-23T02:38:56;2.60;99.90
17348;DHT22;8791;50.876;4.342;2023-01-23T02:41:28;2.50;99.90
17348;DHT22;8791;50.876;4.342;2023-01-23T02:43:58;2.40;99.90
17348;DHT22;8791;50.876;4.342;2023-01-23T02:46:26;2.40;99.90
17348;DHT22;8791;50.876;4.342;2023-01-23T02:48:53;2.50;99.90
17348;DHT22;8791;50.876;4.342;2023-01-23T02:51:20;2.50;99.90
17348;DHT22;8791;50.876;4.342;2023-01-23T02:53:47;2.60;99.90
17348;DHT22;8791;50.876;4.342;2023-01-23T02:56:14;2.60;99.90
17348;DHT22;8791;50.876;4.342;2023-01-23T02:58:43;2.70;99.90
17348;DHT22;8791;50.876;4.342;2023-01-23T03:01:27;2.60;99.90
17348;DHT22;8791;50.876;4.342;2023-01-23T03:03:54;2.60;99.90
17348;DHT22;8791;50.876;4.342;2023-01-23T03:06:29;2.60;99.90
17348;DHT22;8791;50.876;4.342;2023-01-23T03:09:01;2.50;99.90
17348;DHT22;8791;50.876;4.342;2023-01-23T03:11:30;2.50;99.90
17348;DHT22;8791;50.876;4.342;2023-01-23T03:13:59;2.60;99.90
17348;DHT22;8791;50.876;4.342;2023-01-23T03:16:26;2.70;99.90
17348;DHT22;8791;50.876;4.342;2023-01-23T03:18:53;2.60;99.90
17348;DHT22;8791;50.876;4.342;2023-01-23T03:21:22;2.60;99.90
17348;DHT22;8791;50.876;4.342;2023-01-23T03:23:49;2.50;99.90
17348;DHT22;8791;50.876;4.342;2023-01-23T03:26:15;2.60;99.90
17348;DHT22;8791;50.876;4.342;2023-01-23T03:28:42;2.60;99.90
17348;DHT22;8791;50.876;4.342;2023-01-23T03:31:28;2.60;99.90
17348;DHT22;8791;50.876;4.342;2023-01-23T03:33:55;2.60;99.90
17348;DHT22;8791;50.876;4.342;2023-01-23T03:36:21;2.50;99.90
17348;DHT22;8791;50.876;4.342;2023-01-23T03:38:48;2.50;99.90
17348;DHT22;8791;50.876;4.342;2023-01-23T03:41:32;2.50;99.90
17348;DHT22;8791;50.876;4.342;2023-01-23T03:43:59;2.40;99.90
17348;DHT22;8791;50.876;4.342;2023-01-23T03:46:27;2.40;99.90
17348;DHT22;8791;50.876;4.342;2023-01-23T03:48:54;2.60;99.90
17348;DHT22;8791;50.876;4.342;2023-01-23T03:51:21;2.70;99.90
17348;DHT22;8791;50.876;4.342;2023-01-23T03:53:48;2.80;99.90
17348;DHT22;8791;50.876;4.342;2023-01-23T03:56:14;2.60;99.90
17348;DHT22;8791;50.876;4.342;2023-01-23T03:58:41;2.70;99.90
17348;DHT22;8791;50.876;4.342;2023-01-23T04:01:08;2.60;99.90
17348;DHT22;8791;50.876;4.342;2023-01-23T04:03:37;2.50;99.90
17348;DHT22;8791;50.876;4.342;2023-01-23T04:06:04;2.50;99.90
17348;DHT22;8791;50.876;4.342;2023-01-23T04:08:30;2.60;99.90
17348;DHT22;8791;50.876;4.342;2023-01-23T04:11:02;2.60;99.90
17348;DHT22;8791;50.876;4.342;2023-01-23T04:13:28;2.60;99.90
17348;DHT22;8791;50.876;4.342;2023-01-23T04:15:55;2.80;99.90
17348;DHT22;8791;50.876;4.342;2023-01-23T04:18:22;2.80;99.90
17348;DHT22;8791;50.876;4.342;2023-01-23T04:20:50;2.70;99.90
17348;DHT22;8791;50.876;4.342;2023-01-23T04:23:17;2.70;99.90
17348;DHT22;8791;50.876;4.342;2023-01-23T04:25:44;2.90;99.90
17348;DHT22;8791;50.876;4.342;2023-01-23T04:28:11;2.90;99.90
17348;DHT22;8791;50.876;4.342;2023-01-23T04:30:38;2.90;99.90
17348;DHT22;8791;50.876;4.342;2023-01-23T04:33:05;2.90;99.90
17348;DHT22;8791;50.876;4.342;2023-01-23T04:35:32;2.80;99.90
17348;DHT22;8791;50.876;4.342;2023-01-23T04:38:00;2.70;99.90
17348;DHT22;8791;50.876;4.342;2023-01-23T04:40:27;2.70;99.90
17348;DHT22;8791;50.876;4.342;2023-01-23T04:42:54;2.70;99.90
17348;DHT22;8791;50.876;4.342;2023-01-23T04:45:21;2.70;99.90
17348;DHT22;8791;50.876;4.342;2023-01-23T04:47:47;2.70;99.90
17348;DHT22;8791;50.876;4.342;2023-01-23T04:50:15;2.60;99.90
17348;DHT22;8791;50.876;4.342;2023-01-23T04:52:41;2.60;99.90
17348;DHT22;8791;50.876;4.342;2023-01-23T04:55:10;2.70;99.90
17348;DHT22;8791;50.876;4.342;2023-01-23T04:57:37;2.60;99.90
17348;DHT22;8791;50.876;4.342;2023-01-23T05:00:04;2.80;99.90
17348;DHT22;8791;50.876;4.342;2023-01-23T05:02:31;2.70;99.90
17348;DHT22;8791;50.876;4.342;2023-01-23T05:04:58;2.80;99.90
17348;DHT22;8791;50.876;4.342;2023-01-23T05:07:25;2.80;99.90
17348;DHT22;8791;50.876;4.342;2023-01-23T05:09:52;2.80;99.90
17348;DHT22;8791;50.876;4.342;2023-01-23T05:12:20;2.60;99.90
17348;DHT22;8791;50.876;4.342;2023-01-23T05:14:46;2.90;99.90
17348;DHT22;8791;50.876;4.342;2023-01-23T05:17:13;2.90;99.90
17348;DHT22;8791;50.876;4.342;2023-01-23T05:19:40;2.80;99.90
17348;DHT22;8791;50.876;4.342;2023-01-23T05:22:07;2.70;99.90
17348;DHT22;8791;50.876;4.342;2023-01-23T05:24:34;2.70;99.90
17348;DHT22;8791;50.876;4.342;2023-01-23T05:27:01;2.80;99.90
17348;DHT22;8791;50.876;4.342;2023-01-23T05:29:29;2.60;99.90
17348;DHT22;8791;50.876;4.342;2023-01-23T05:31:56;2.70;99.90
17348;DHT22;8791;50.876;4.342;2023-01-23T05:34:22;2.80;99.90
17348;DHT22;8791;50.876;4.342;2023-01-23T05:36:49;2.70;99.90
17348;DHT22;8791;50.876;4.342;2023-01-23T05:39:16;2.90;99.90
17348;DHT22;8791;50.876;4.342;2023-01-23T05:41:43;3.00;99.90
17348;DHT22;8791;50.876;4.342;2023-01-23T05:44:09;3.00;99.90
17348;DHT22;8791;50.876;4.342;2023-01-23T05:46:38;3.00;99.90
17348;DHT22;8791;50.876;4.342;2023-01-23T05:49:05;3.00;99.90
17348;DHT22;8791;50.876;4.342;2023-01-23T05:51:31;2.90;99.90
17348;DHT22;8791;50.876;4.342;2023-01-23T05:53:59;3.00;99.90
17348;DHT22;8791;50.876;4.342;2023-01-23T05:56:26;2.90;99.90
17348;DHT22;8791;50.876;4.342;2023-01-23T05:58:53;2.80;99.90
17348;DHT22;8791;50.876;4.342;2023-01-23T06:01:20;2.70;99.90
17348;DHT22;8791;50.876;4.342;2023-01-23T06:03:48;2.70;99.90
17348;DHT22;8791;50.876;4.342;2023-01-23T06:06:15;2.70;99.90
17348;DHT22;8791;50.876;4.342;2023-01-23T06:08:42;2.80;99.90
17348;DHT22;8791;50.876;4.342;2023-01-23T06:11:09;2.90;99.90
17348;DHT22;8791;50.876;4.342;2023-01-23T06:13:35;2.90;99.90
17348;DHT22;8791;50.876;4.342;2023-01-23T06:16:02;3.00;99.90
17348;DHT22;8791;50.876;4.342;2023-01-23T06:18:29;3.10;99.90
17348;DHT22;8791;50.876;4.342;2023-01-23T06:20:58;2.90;99.90
17348;DHT22;8791;50.876;4.342;2023-01-23T06:23:25;2.90;99.90
17348;DHT22;8791;50.876;4.342;2023-01-23T06:25:52;2.80;99.90
17348;DHT22;8791;50.876;4.342;2023-01-23T06:28:19;2.80;99.90
17348;DHT22;8791;50.876;4.342;2023-01-23T06:30:46;2.70;99.90
17348;DHT22;8791;50.876;4.342;2023-01-23T06:33:13;2.70;99.90
17348;DHT22;8791;50.876;4.342;2023-01-23T06:35:39;2.70;99.90
17348;DHT22;8791;50.876;4.342;2023-01-23T06:38:08;2.90;99.90
17348;DHT22;8791;50.876;4.342;2023-01-23T06:40:34;2.90;99.90
17348;DHT22;8791;50.876;4.342;2023-01-23T06:43:01;3.00;99.90
17348;DHT22;8791;50.876;4.342;2023-01-23T06:45:28;2.90;99.90
17348;DHT22;8791;50.876;4.342;2023-01-23T06:47:55;3.00;99.90
17348;DHT22;8791;50.876;4.342;2023-01-23T06:50:22;2.90;99.90
17348;DHT22;8791;50.876;4.342;2023-01-23T06:52:48;2.90;99.90
17348;DHT22;8791;50.876;4.342;2023-01-23T06:55:17;2.70;99.90
17348;DHT22;8791;50.876;4.342;2023-01-23T06:57:44;2.90;99.90
17348;DHT22;8791;50.876;4.342;2023-01-23T07:00:12;3.00;99.90
17348;DHT22;8791;50.876;4.342;2023-01-23T07:02:40;3.00;99.90
17348;DHT22;8791;50.876;4.342;2023-01-23T07:05:07;2.90;99.90
17348;DHT22;8791;50.876;4.342;2023-01-23T07:07:34;3.00;99.90
17348;DHT22;8791;50.876;4.342;2023-01-23T07:10:01;3.00;99.90
17348;DHT22;8791;50.876;4.342;2023-01-23T07:12:29;3.10;99.90
17348;DHT22;8791;50.876;4.342;2023-01-23T07:14:56;3.00;99.90
17348;DHT22;8791;50.876;4.342;2023-01-23T07:17:23;3.00;99.90
17348;DHT22;8791;50.876;4.342;2023-01-23T07:19:50;3.00;99.90
17348;DHT22;8791;50.876;4.342;2023-01-23T07:22:17;3.10;99.90
17348;DHT22;8791;50.876;4.342;2023-01-23T07:24:44;3.20;99.90
17348;DHT22;8791;50.876;4.342;2023-01-23T07:27:10;3.10;99.90
17348;DHT22;8791;50.876;4.342;2023-01-23T07:29:39;3.10;99.90
17348;DHT22;8791;50.876;4.342;2023-01-23T07:32:05;3.10;99.90
17348;DHT22;8791;50.876;4.342;2023-01-23T07:34:32;2.90;99.90
17348;DHT22;8791;50.876;4.342;2023-01-23T07:36:59;2.80;99.90
17348;DHT22;8791;50.876;4.342;2023-01-23T07:39:26;2.80;99.90
17348;DHT22;8791;50.876;4.342;2023-01-23T07:41:53;2.90;99.90
17348;DHT22;8791;50.876;4.342;2023-01-23T07:44:20;2.90;99.90
17348;DHT22;8791;50.876;4.342;2023-01-23T07:46:49;3.10;99.90
17348;DHT22;8791;50.876;4.342;2023-01-23T07:49:15;3.10;99.90
17348;DHT22;8791;50.876;4.342;2023-01-23T07:51:47;3.10;99.90
17348;DHT22;8791;50.876;4.342;2023-01-23T07:54:17;3.10;99.90
17348;DHT22;8791;50.876;4.342;2023-01-23T07:56:44;3.10;99.90
17348;DHT22;8791;50.876;4.342;2023-01-23T07:59:11;3.00;99.90
17348;DHT22;8791;50.876;4.342;2023-01-23T08:01:38;3.10;99.90
17348;DHT22;8791;50.876;4.342;2023-01-23T08:04:06;2.80;99.90
17348;DHT22;8791;50.876;4.342;2023-01-23T08:06:33;3.00;99.90
17348;DHT22;8791;50.876;4.342;2023-01-23T08:09:01;3.00;99.90
17348;DHT22;8791;50.876;4.342;2023-01-23T08:11:27;3.10;99.90
17348;DHT22;8791;50.876;4.342;2023-01-23T08:13:54;3.10;99.90
17348;DHT22;8791;50.876;4.342;2023-01-23T08:16:21;3.20;99.90
17348;DHT22;8791;50.876;4.342;2023-01-23T08:18:48;3.20;99.90
17348;DHT22;8791;50.876;4.342;2023-01-23T08:21:16;3.20;99.90
17348;DHT22;8791;50.876;4.342;2023-01-23T08:23:43;3.20;99.90
17348;DHT22;8791;50.876;4.342;2023-01-23T08:26:12;3.30;99.90
17348;DHT22;8791;50.876;4.342;2023-01-23T08:28:39;3.20;99.90
17348;DHT22;8791;50.876;4.342;2023-01-23T08:31:07;3.20;99.90
17348;DHT22;8791;50.876;4.342;2023-01-23T08:33:35;3.10;99.90
17348;DHT22;8791;50.876;4.342;2023-01-23T08:36:02;3.00;99.90
17348;DHT22;8791;50.876;4.342;2023-01-23T08:38:31;2.90;99.90
17348;DHT22;8791;50.876;4.342;2023-01-23T08:41:00;3.00;99.90
17348;DHT22;8791;50.876;4.342;2023-01-23T08:43:27;3.00;99.90
17348;DHT22;8791;50.876;4.342;2023-01-23T08:45:56;3.00;99.90
17348;DHT22;8791;50.876;4.342;2023-01-23T08:48:27;3.20;99.90
17348;DHT22;8791;50.876;4.342;2023-01-23T08:51:05;3.10;99.90
17348;DHT22;8791;50.876;4.342;2023-01-23T08:53:33;3.00;99.90
17348;DHT22;8791;50.876;4.342;2023-01-23T08:56:01;3.00;99.90
17348;DHT22;8791;50.876;4.342;2023-01-23T08:58:28;3.10;99.90
17348;DHT22;8791;50.876;4.342;2023-01-23T09:00:56;3.20;99.90
17348;DHT22;8791;50.876;4.342;2023-01-23T09:03:23;3.30;99.90
17348;DHT22;8791;50.876;4.342;2023-01-23T09:05:50;3.30;99.90
17348;DHT22;8791;50.876;4.342;2023-01-23T09:08:17;3.30;99.90
17348;DHT22;8791;50.876;4.342;2023-01-23T09:10:45;3.30;99.90
17348;DHT22;8791;50.876;4.342;2023-01-23T09:13:12;3.40;99.90
17348;DHT22;8791;50.876;4.342;2023-01-23T09:15:39;3.40;99.90
17348;DHT22;8791;50.876;4.342;2023-01-23T09:18:06;3.40;99.90
17348;DHT22;8791;50.876;4.342;2023-01-23T09:20:32;3.30;99.90
17348;DHT22;8791;50.876;4.342;2023-01-23T09:23:02;3.30;99.90
17348;DHT22;8791;50.876;4.342;2023-01-23T09:25:29;3.40;99.90
17348;DHT22;8791;50.876;4.342;2023-01-23T09:28:00;3.40;99.90
17348;DHT22;8791;50.876;4.342;2023-01-23T09:30:27;3.60;99.90
17348;DHT22;8791;50.876;4.342;2023-01-23T09:32:54;3.50;99.90
17348;DHT22;8791;50.876;4.342;2023-01-23T09:35:21;3.70;99.90
17348;DHT22;8791;50.876;4.342;2023-01-23T09:37:48;3.80;99.90
17348;DHT22;8791;50.876;4.342;2023-01-23T09:40:29;3.70;99.90
17348;DHT22;8791;50.876;4.342;2023-01-23T09:43:04;3.70;99.90
17348;DHT22;8791;50.876;4.342;2023-01-23T09:45:37;3.60;99.90
17348;DHT22;8791;50.876;4.342;2023-01-23T09:48:15;3.70;99.90
17348;DHT22;8791;50.876;4.342;2023-01-23T09:50:52;3.70;99.90
17348;DHT22;8791;50.876;4.342;2023-01-23T09:53:25;3.60;99.90
17348;DHT22;8791;50.876;4.342;2023-01-23T09:55:58;3.70;99.90
17348;DHT22;8791;50.876;4.342;2023-01-23T09:58:33;3.80;99.90
17348;DHT22;8791;50.876;4.342;2023-01-23T10:01:01;3.70;99.90
17348;DHT22;8791;50.876;4.342;2023-01-23T10:03:31;3.70;99.90
17348;DHT22;8791;50.876;4.342;2023-01-23T10:06:11;3.70;99.90
17348;DHT22;8791;50.876;4.342;2023-01-23T10:08:48;3.70;99.90
17348;DHT22;8791;50.876;4.342;2023-01-23T10:11:22;3.80;99.90
17348;DHT22;8791;50.876;4.342;2023-01-23T10:14:06;3.70;99.90
17348;DHT22;8791;50.876;4.342;2023-01-23T10:16:52;3.80;99.90
17348;DHT22;8791;50.876;4.342;2023-01-23T10:19:39;3.90;99.90
17348;DHT22;8791;50.876;4.342;2023-01-23T10:22:14;3.90;99.90
17348;DHT22;8791;50.876;4.342;2023-01-23T10:24:49;4.00;99.90
17348;DHT22;8791;50.876;4.342;2023-01-23T10:27:19;4.00;99.90
17348;DHT22;8791;50.876;4.342;2023-01-23T10:29:49;4.00;99.90
17348;DHT22;8791;50.876;4.342;2023-01-23T10:32:24;4.00;99.90
17348;DHT22;8791;50.876;4.342;2023-01-23T10:34:55;3.90;99.90
17348;DHT22;8791;50.876;4.342;2023-01-23T10:37:39;3.90;99.90
17348;DHT22;8791;50.876;4.342;2023-01-23T10:40:11;3.90;99.90
17348;DHT22;8791;50.876;4.342;2023-01-23T10:42:39;3.60;99.90
17348;DHT22;8791;50.876;4.342;2023-01-23T10:45:14;3.60;99.90
17348;DHT22;8791;50.876;4.342;2023-01-23T10:47:44;3.60;99.90
17348;DHT22;8791;50.876;4.342;2023-01-23T10:50:12;3.70;99.90
17348;DHT22;8791;50.876;4.342;2023-01-23T10:52:41;3.80;99.90
17348;DHT22;8791;50.876;4.342;2023-01-23T10:55:26;3.80;99.90
17348;DHT22;8791;50.876;4.342;2023-01-23T10:57:55;3.90;99.90
17348;DHT22;8791;50.876;4.342;2023-01-23T11:00:26;3.90;99.90
17348;DHT22;8791;50.876;4.342;2023-01-23T11:02:55;3.90;99.90
17348;DHT22;8791;50.876;4.342;2023-01-23T11:05:36;3.90;99.90
17348;DHT22;8791;50.876;4.342;2023-01-23T11:08:07;4.00;99.90
17348;DHT22;8791;50.876;4.342;2023-01-23T11:10:47;4.00;99.90
17348;DHT22;8791;50.876;4.342;2023-01-23T11:13:25;4.00;99.90
17348;DHT22;8791;50.876;4.342;2023-01-23T11:15:54;4.10;99.90
17348;DHT22;8791;50.876;4.342;2023-01-23T11:18:29;4.20;99.90
17348;DHT22;8791;50.876;4.342;2023-01-23T11:20:58;4.20;99.90
17348;DHT22;8791;50.876;4.342;2023-01-23T11:23:25;4.30;99.90
17348;DHT22;8791;50.876;4.342;2023-01-23T11:25:53;4.30;99.90
17348;DHT22;8791;50.876;4.342;2023-01-23T11:28:22;4.40;99.90
17348;DHT22;8791;50.876;4.342;2023-01-23T11:30:56;4.40;99.90
17348;DHT22;8791;50.876;4.342;2023-01-23T11:33:36;4.30;99.90
17348;DHT22;8791;50.876;4.342;2023-01-23T11:36:12;4.30;99.90
17348;DHT22;8791;50.876;4.342;2023-01-23T11:38:44;4.10;99.90
17348;DHT22;8791;50.876;4.342;2023-01-23T11:41:13;4.10;99.90
17348;DHT22;8791;50.876;4.342;2023-01-23T11:43:40;4.10;99.90
17348;DHT22;8791;50.876;4.342;2023-01-23T11:46:32;4.20;99.90
17348;DHT22;8791;50.876;4.342;2023-01-23T11:49:22;4.10;99.90
17348;DHT22;8791;50.876;4.342;2023-01-23T11:51:59;4.00;99.90
17348;DHT22;8791;50.876;4.342;2023-01-23T11:54:44;4.10;99.90
17348;DHT22;8791;50.876;4.342;2023-01-23T11:57:21;4.20;99.90
17348;DHT22;8791;50.876;4.342;2023-01-23T12:00:02;4.10;99.90
17348;DHT22;8791;50.876;4.342;2023-01-23T12:05:47;4.10;99.90
17348;DHT22;8791;50.876;4.342;2023-01-23T12:08:22;4.10;99.90
17348;DHT22;8791;50.876;4.342;2023-01-23T12:11:02;4.00;99.90
17348;DHT22;8791;50.876;4.342;2023-01-23T12:13:48;4.20;99.90
17348;DHT22;8791;50.876;4.342;2023-01-23T12:16:23;4.20;99.90
17348;DHT22;8791;50.876;4.342;2023-01-23T12:19:07;4.30;99.90
17348;DHT22;8791;50.876;4.342;2023-01-23T12:21:42;4.30;99.90
17348;DHT22;8791;50.876;4.342;2023-01-23T12:24:16;4.30;99.90
17348;DHT22;8791;50.876;4.342;2023-01-23T12:26:59;4.30;99.90
17348;DHT22;8791;50.876;4.342;2023-01-23T12:29:43;4.40;99.90
17348;DHT22;8791;50.876;4.342;2023-01-23T12:32:30;4.40;99.90
17348;DHT22;8791;50.876;4.342;2023-01-23T12:35:10;4.30;99.90
17348;DHT22;8791;50.876;4.342;2023-01-23T12:40:37;4.20;99.90
17348;DHT22;8791;50.876;4.342;2023-01-23T12:43:10;4.20;99.90
17348;DHT22;8791;50.876;4.342;2023-01-23T12:45:40;4.30;99.90
17348;DHT22;8791;50.876;4.342;2023-01-23T12:48:13;4.20;99.90
17348;DHT22;8791;50.876;4.342;2023-01-23T12:50:45;4.30;99.90
17348;DHT22;8791;50.876;4.342;2023-01-23T12:53:15;4.40;99.90
17348;DHT22;8791;50.876;4.342;2023-01-23T12:55:57;4.30;99.90
17348;DHT22;8791;50.876;4.342;2023-01-23T12:58:27;4.30;99.90
17348;DHT22;8791;50.876;4.342;2023-01-23T13:01:08;4.30;99.90
17348;DHT22;8791;50.876;4.342;2023-01-23T13:04:00;4.30;99.90
17348;DHT22;8791;50.876;4.342;2023-01-23T13:06:44;4.50;99.90
17348;DHT22;8791;50.876;4.342;2023-01-23T13:09:23;4.70;99.90
17348;DHT22;8791;50.876;4.342;2023-01-23T13:11:58;4.60;99.90
17348;DHT22;8791;50.876;4.342;2023-01-23T13:14:37;4.60;99.90
17348;DHT22;8791;50.876;4.342;2023-01-23T13:17:30;4.40;99.90
17348;DHT22;8791;50.876;4.342;2023-01-23T13:20:21;4.50;99.90
17348;DHT22;8791;50.876;4.342;2023-01-23T13:23:25;4.60;99.90
17348;DHT22;8791;50.876;4.342;2023-01-23T13:28:58;4.30;99.90
17348;DHT22;8791;50.876;4.342;2023-01-23T13:31:37;4.40;99.90
17348;DHT22;8791;50.876;4.342;2023-01-23T13:34:34;4.50;99.90
17348;DHT22;8791;50.876;4.342;2023-01-23T13:40:14;4.20;99.90
17348;DHT22;8791;50.876;4.342;2023-01-23T13:42:43;4.20;99.90
17348;DHT22;8791;50.876;4.342;2023-01-23T13:45:18;4.20;99.90
17348;DHT22;8791;50.876;4.342;2023-01-23T13:47:50;4.10;99.90
17348;DHT22;8791;50.876;4.342;2023-01-23T13:50:53;3.90;99.90
17348;DHT22;8791;50.876;4.342;2023-01-23T13:53:24;4.10;99.90
17348;DHT22;8791;50.876;4.342;2023-01-23T13:56:25;3.90;99.90
17348;DHT22;8791;50.876;4.342;2023-01-23T13:59:10;4.00;99.90
17348;DHT22;8791;50.876;4.342;2023-01-23T14:01:46;4.30;99.90
17348;DHT22;8791;50.876;4.342;2023-01-23T14:04:34;4.30;99.90
17348;DHT22;8791;50.876;4.342;2023-01-23T14:07:32;4.50;99.90
17348;DHT22;8791;50.876;4.342;2023-01-23T14:10:22;4.20;99.90
17348;DHT22;8791;50.876;4.342;2023-01-23T14:13:00;4.20;99.90
17348;DHT22;8791;50.876;4.342;2023-01-23T14:15:28;4.20;99.90
17348;DHT22;8791;50.876;4.342;2023-01-23T14:18:30;4.20;99.90
17348;DHT22;8791;50.876;4.342;2023-01-23T14:21:01;4.30;99.90
17348;DHT22;8791;50.876;4.342;2023-01-23T14:23:33;4.50;99.90
17348;DHT22;8791;50.876;4.342;2023-01-23T14:26:01;4.30;99.90
17348;DHT22;8791;50.876;4.342;2023-01-23T14:28:30;4.20;99.90
17348;DHT22;8791;50.876;4.342;2023-01-23T14:31:00;4.20;99.90
17348;DHT22;8791;50.876;4.342;2023-01-23T14:33:36;4.30;99.90
17348;DHT22;8791;50.876;4.342;2023-01-23T14:36:05;4.30;99.90
17348;DHT22;8791;50.876;4.342;2023-01-23T14:38:38;4.30;99.90
17348;DHT22;8791;50.876;4.342;2023-01-23T14:41:06;4.30;99.90
17348;DHT22;8791;50.876;4.342;2023-01-23T14:43:35;4.40;99.90
17348;DHT22;8791;50.876;4.342;2023-01-23T14:46:04;4.30;99.90
17348;DHT22;8791;50.876;4.342;2023-01-23T14:48:35;4.20;99.90
17348;DHT22;8791;50.876;4.342;2023-01-23T14:51:07;4.30;99.90
17348;DHT22;8791;50.876;4.342;2023-01-23T14:53:38;4.30;99.90
17348;DHT22;8791;50.876;4.342;2023-01-23T14:56:07;4.30;99.90
17348;DHT22;8791;50.876;4.342;2023-01-23T14:58:37;4.30;99.90
17348;DHT22;8791;50.876;4.342;2023-01-23T15:01:04;4.30;99.90
17348;DHT22;8791;50.876;4.342;2023-01-23T15:03:36;4.30;99.90
17348;DHT22;8791;50.876;4.342;2023-01-23T15:06:11;4.20;99.90
17348;DHT22;8791;50.876;4.342;2023-01-23T15:08:38;4.20;99.90
17348;DHT22;8791;50.876;4.342;2023-01-23T15:11:06;4.10;99.90
17348;DHT22;8791;50.876;4.342;2023-01-23T15:13:43;4.10;99.90
17348;DHT22;8791;50.876;4.342;2023-01-23T15:16:14;4.10;99.90
17348;DHT22;8791;50.876;4.342;2023-01-23T15:18:53;4.10;99.90
17348;DHT22;8791;50.876;4.342;2023-01-23T15:21:27;4.00;99.90
17348;DHT22;8791;50.876;4.342;2023-01-23T15:24:02;3.90;99.90
17348;DHT22;8791;50.876;4.342;2023-01-23T15:26:32;3.90;99.90
17348;DHT22;8791;50.876;4.342;2023-01-23T15:29:03;3.90;99.90
17348;DHT22;8791;50.876;4.342;2023-01-23T15:31:45;4.00;99.90
17348;DHT22;8791;50.876;4.342;2023-01-23T15:34:25;3.90;99.90
17348;DHT22;8791;50.876;4.342;2023-01-23T15:36:55;3.90;99.90
17348;DHT22;8791;50.876;4.342;2023-01-23T15:39:25;4.00;99.90
17348;DHT22;8791;50.876;4.342;2023-01-23T15:41:55;3.90;99.90
17348;DHT22;8791;50.876;4.342;2023-01-23T15:44:26;3.90;99.90
17348;DHT22;8791;50.876;4.342;2023-01-23T15:46:53;4.00;99.90
17348;DHT22;8791;50.876;4.342;2023-01-23T15:49:20;4.00;99.90
17348;DHT22;8791;50.876;4.342;2023-01-23T15:51:47;4.00;99.90
17348;DHT22;8791;50.876;4.342;2023-01-23T15:54:19;4.10;99.90
17348;DHT22;8791;50.876;4.342;2023-01-23T15:56:48;4.10;99.90
17348;DHT22;8791;50.876;4.342;2023-01-23T15:59:17;4.00;99.90
17348;DHT22;8791;50.876;4.342;2023-01-23T16:01:45;4.00;99.90
17348;DHT22;8791;50.876;4.342;2023-01-23T16:04:13;4.00;99.90
17348;DHT22;8791;50.876;4.342;2023-01-23T16:06:42;4.10;99.90
17348;DHT22;8791;50.876;4.342;2023-01-23T16:09:16;4.00;99.90
17348;DHT22;8791;50.876;4.342;2023-01-23T16:11:45;3.90;99.90
17348;DHT22;8791;50.876;4.342;2023-01-23T16:14:15;3.90;99.90
17348;DHT22;8791;50.876;4.342;2023-01-23T16:16:42;4.00;99.90
17348;DHT22;8791;50.876;4.342;2023-01-23T16:19:10;4.10;99.90
17348;DHT22;8791;50.876;4.342;2023-01-23T16:21:37;4.30;99.90
17348;DHT22;8791;50.876;4.342;2023-01-23T16:24:10;4.30;99.90
17348;DHT22;8791;50.876;4.342;2023-01-23T16:26:41;4.20;99.90
17348;DHT22;8791;50.876;4.342;2023-01-23T16:29:16;4.30;99.90
17348;DHT22;8791;50.876;4.342;2023-01-23T16:31:48;4.20;99.90
17348;DHT22;8791;50.876;4.342;2023-01-23T16:34:17;4.00;99.90
17348;DHT22;8791;50.876;4.342;2023-01-23T16:36:43;3.80;99.90
17348;DHT22;8791;50.876;4.342;2023-01-23T16:39:15;3.70;99.90
17348;DHT22;8791;50.876;4.342;2023-01-23T16:41:42;3.70;99.90